首页
METAR-TAF:

METAR-TAF

机场 :

Leuchars, 苏格兰

纬度: 56-23N, 经度: 002-52W, 海拔: 12米

当前天气观测

该预报发布于56分钟前的07:50 UTC
风速10节,风向西
温度 4°C
湿度 75%
气压 1011 hPa
能见度10公里或以上
1500米以下无云,无积雨云

METAR: EGQL 030750Z 26010KT CAVOK 04/M00 Q1011 BLU

时间: 09:46 (08:46 UTC)

预报

该预报发布于1小时和0分钟前的07:46 UTC
预报有效从03日的 09点(UTC)到 03日的 18点(UTC)
风速8节,风向西转西南
能见度10公里或以上
散云层高于4500英尺
几率 30% :
短暂存在
从 03日的 09点(UTC)到 03日的 16点(UTC)
能見度: 5000
散云层高于2000英尺
阵雨, 雪

TAF: EGQL 030746Z 0309/0318 25008KT 9999 SCT045 PROB30 TEMPO 0309/0316 5000 SHRASN SCT020

超过4000个机场的气象观测和天气预报(METAR&TAF报告)。

可查询的气象台以黄色和红色小点在地图上表示。

将鼠标移到小点上方,可查看气象台名称。

然后点击查看天气观测和预报。

如需切换地图:点击带黑十字的绿色按钮放大地图;点击带横线的绿色按钮缩小地图;或者点击绿色箭头查看邻近地区的地图。


METAR-TAF: